createdAt,value
2023-02-17T00:01:33.359Z,99600.58
2023-02-17T00:04:01.822Z,99602.27
2023-02-17T00:06:32.395Z,99599.75
2023-02-17T00:09:00.761Z,99600.10
2023-02-17T00:11:28.969Z,99596.11
2023-02-17T00:13:57.224Z,99594.06
2023-02-17T00:16:27.194Z,99597.92
2023-02-17T00:18:57.861Z,99596.73
2023-02-17T00:21:28.280Z,99597.27
2023-02-17T00:23:57.972Z,99597.45
2023-02-17T00:26:25.733Z,99599.39
2023-02-17T00:28:53.704Z,99596.59
2023-02-17T00:31:23.573Z,99596.25
2023-02-17T00:33:54.383Z,99592.23
2023-02-17T00:36:22.277Z,99595.21
2023-02-17T00:38:50.185Z,99591.02
2023-02-17T00:41:19.311Z,99590.00
2023-02-17T00:43:48.193Z,99587.00
2023-02-17T00:46:17.713Z,99587.21
2023-02-17T00:48:46.652Z,99583.04
2023-02-17T00:51:15.655Z,99583.23
2023-02-17T00:53:43.967Z,99585.48
2023-02-17T00:56:12.692Z,99587.55
2023-02-17T00:58:41.656Z,99583.52
2023-02-17T01:01:11.443Z,99584.73
2023-02-17T01:03:41.051Z,99583.45
2023-02-17T01:06:22.287Z,99580.59
2023-02-17T01:08:50.774Z,99579.16
2023-02-17T01:11:20.882Z,99577.89
2023-02-17T01:13:49.096Z,99577.70
2023-02-17T01:16:19.666Z,99574.70
2023-02-17T01:18:48.124Z,99573.63
2023-02-17T01:21:20.731Z,99573.11
2023-02-17T01:23:50.203Z,99570.34
2023-02-17T01:26:21.829Z,99569.30
2023-02-17T01:28:50.967Z,99564.42
2023-02-17T01:31:20.126Z,99561.95
2023-02-17T01:33:48.414Z,99560.53
2023-02-17T01:36:19.249Z,99555.62
2023-02-17T01:38:47.627Z,99553.86
2023-02-17T01:41:17.643Z,99552.84
2023-02-17T01:44:10.620Z,99545.69
2023-02-17T01:46:40.359Z,99541.46
2023-02-17T01:49:38.558Z,99542.29
2023-02-17T01:52:26.843Z,99540.63
2023-02-17T01:54:59.974Z,99537.41
2023-02-17T01:57:32.439Z,99531.22
2023-02-17T02:00:00.842Z,99530.14
2023-02-17T02:02:31.143Z,99527.84
2023-02-17T02:05:00.525Z,99522.69
2023-02-17T02:07:40.959Z,99522.44
2023-02-17T02:10:10.678Z,99518.21
2023-02-17T02:12:40.951Z,99523.77
2023-02-17T02:15:19.456Z,99516.19
2023-02-17T02:18:14.516Z,99513.48
2023-02-17T02:21:19.824Z,99511.16
2023-02-17T02:23:58.159Z,99503.41
2023-02-17T02:27:04.237Z,99497.78
2023-02-17T02:29:56.692Z,99493.73
2023-02-17T02:32:30.197Z,99495.40
2023-02-17T02:35:08.250Z,99494.29
2023-02-17T02:37:43.547Z,99492.16
2023-02-17T02:40:13.531Z,99492.98
2023-02-17T02:42:42.317Z,99495.59
2023-02-17T02:45:11.103Z,99493.98
2023-02-17T02:47:45.184Z,99493.91
2023-02-17T02:50:25.171Z,99497.34
2023-02-17T02:53:04.768Z,99491.70
2023-02-17T02:55:48.970Z,99496.37
2023-02-17T02:58:43.105Z,99492.66
2023-02-17T03:01:14.314Z,99490.27
2023-02-17T03:04:00.919Z,99486.23
2023-02-17T03:06:45.527Z,99486.16
2023-02-17T03:09:21.019Z,99484.89
2023-02-17T03:11:50.445Z,99481.89
2023-02-17T03:14:20.975Z,99480.13
2023-02-17T03:16:50.766Z,99478.22
2023-02-17T03:19:22.584Z,99481.91
2023-02-17T03:21:57.284Z,99486.81
2023-02-17T03:24:25.624Z,99489.63
2023-02-17T03:26:53.396Z,99494.19
2023-02-17T03:29:21.229Z,99503.48
2023-02-17T03:31:49.271Z,99501.55
2023-02-17T03:34:17.518Z,99501.55
2023-02-17T03:36:45.825Z,99498.55
2023-02-17T03:39:13.600Z,99498.90
2023-02-17T03:41:41.428Z,99496.77
2023-02-17T03:44:09.254Z,99497.66
2023-02-17T03:46:40.657Z,99500.21
2023-02-17T03:49:08.868Z,99502.63
2023-02-17T03:51:37.218Z,99498.91
2023-02-17T03:54:05.192Z,99493.27
2023-02-17T03:56:33.155Z,99496.57
2023-02-17T03:59:00.978Z,99491.50
2023-02-17T04:01:29.303Z,99495.68
2023-02-17T04:03:57.791Z,99493.21
2023-02-17T04:06:25.725Z,99491.60
2023-02-17T04:08:53.598Z,99489.17
2023-02-17T04:11:21.364Z,99486.06
2023-02-17T04:13:49.155Z,99485.20
2023-02-17T04:16:18.326Z,99482.98
2023-02-17T04:18:46.878Z,99479.03
2023-02-17T04:21:14.784Z,99473.51
2023-02-17T04:23:42.633Z,99470.09
2023-02-17T04:26:10.389Z,99470.30
2023-02-17T04:28:40.920Z,99468.08
2023-02-17T04:31:09.420Z,99466.73
2023-02-17T04:33:38.073Z,99465.40
2023-02-17T04:36:06.507Z,99460.20
2023-02-17T04:38:34.916Z,99466.02
2023-02-17T04:41:03.308Z,99468.10
2023-02-17T04:43:31.631Z,99467.02
2023-02-17T04:45:59.453Z,99468.04
2023-02-17T04:48:27.238Z,99474.79
2023-02-17T04:50:55.018Z,99474.34
2023-02-17T04:53:23.289Z,99467.48
2023-02-17T04:55:52.960Z,99464.46
2023-02-17T04:58:21.261Z,99467.92
2023-02-17T05:00:50.436Z,99471.20
2023-02-17T05:03:19.485Z,99475.67
2023-02-17T05:05:47.396Z,99471.27
2023-02-17T05:08:15.256Z,99468.95
2023-02-17T05:10:43.068Z,99473.48
2023-02-17T05:13:10.852Z,99473.27
2023-02-17T05:15:38.754Z,99472.00
2023-02-17T05:18:06.590Z,99472.08
2023-02-17T05:20:34.373Z,99473.74
2023-02-17T05:23:02.143Z,99470.33
2023-02-17T05:25:29.948Z,99467.80
2023-02-17T05:27:57.730Z,99466.01
2023-02-17T05:30:25.817Z,99468.08
2023-02-17T05:32:53.863Z,99462.65
2023-02-17T05:35:21.914Z,99461.59
2023-02-17T05:37:49.702Z,99464.34
2023-02-17T05:40:17.563Z,99465.22
2023-02-17T05:42:45.399Z,99462.98
2023-02-17T05:45:13.275Z,99466.83
2023-02-17T05:47:41.026Z,99467.22
2023-02-17T05:50:09.028Z,99466.54
2023-02-17T05:52:36.847Z,99466.75
2023-02-17T05:55:05.115Z,99467.32
2023-02-17T05:57:33.159Z,99460.86
2023-02-17T06:00:00.937Z,99459.16
2023-02-17T06:02:28.847Z,99458.67
2023-02-17T06:04:56.767Z,99457.11
2023-02-17T06:07:24.748Z,99459.69
2023-02-17T06:09:52.500Z,99455.11
2023-02-17T06:12:20.282Z,99456.75
2023-02-17T06:14:48.602Z,99457.17
2023-02-17T06:17:17.072Z,99456.36
2023-02-17T06:19:44.842Z,99451.55
2023-02-17T06:22:12.585Z,99454.04
2023-02-17T06:24:40.322Z,99449.88
2023-02-17T06:27:08.096Z,99449.69
2023-02-17T06:29:36.393Z,99445.85
2023-02-17T06:32:05.040Z,99444.38
2023-02-17T06:34:32.847Z,99446.55
2023-02-17T06:37:00.649Z,99446.96
2023-02-17T06:39:28.405Z,99451.23
2023-02-17T06:41:56.180Z,99448.51
2023-02-17T06:44:24.428Z,99446.20
2023-02-17T06:46:52.852Z,99448.08
2023-02-17T06:49:20.620Z,99446.14
2023-02-17T06:51:48.433Z,99447.01
2023-02-17T06:54:16.712Z,99442.61
2023-02-17T06:56:44.492Z,99437.07
2023-02-17T06:59:13.010Z,99438.84
2023-02-17T07:01:41.274Z,99439.02
2023-02-17T07:04:09.068Z,99440.14
2023-02-17T07:06:36.893Z,99439.63
2023-02-17T07:09:04.682Z,99433.35
2023-02-17T07:11:33.014Z,99430.86
2023-02-17T07:14:01.520Z,99429.24
2023-02-17T07:16:29.989Z,99427.82
2023-02-17T07:18:57.783Z,99422.71
2023-02-17T07:21:25.622Z,99427.45
2023-02-17T07:23:53.423Z,99425.02
2023-02-17T07:26:21.171Z,99424.99
2023-02-17T07:28:49.521Z,99425.92
2023-02-17T07:31:18.539Z,99423.47
2023-02-17T07:33:48.232Z,99424.91
2023-02-17T07:36:17.757Z,99426.03
2023-02-17T07:38:45.668Z,99425.88
2023-02-17T07:41:16.457Z,99422.02
2023-02-17T07:43:45.827Z,99421.35
2023-02-17T07:46:14.824Z,99423.65
2023-02-17T07:48:42.958Z,99422.23
2023-02-17T07:51:16.949Z,99420.52
2023-02-17T07:53:44.917Z,99419.33
2023-02-17T07:56:15.493Z,99423.02
2023-02-17T07:58:45.764Z,99428.09
2023-02-17T08:01:21.041Z,99428.14
2023-02-17T08:03:49.658Z,99425.42
2023-02-17T08:06:23.598Z,99420.25
2023-02-17T08:09:11.689Z,99425.80
2023-02-17T08:12:06.433Z,99422.60
2023-02-17T08:14:34.308Z,99425.50
2023-02-17T08:17:02.699Z,99425.34
2023-02-17T08:19:46.544Z,99429.49
2023-02-17T08:22:17.647Z,99426.55
2023-02-17T08:24:45.611Z,99422.33
2023-02-17T08:27:17.352Z,99417.22
2023-02-17T08:29:46.597Z,99413.63
2023-02-17T08:32:16.626Z,99406.87
2023-02-17T08:34:44.644Z,99408.05
2023-02-17T08:37:12.933Z,99411.75
2023-02-17T08:39:40.697Z,99413.76
2023-02-17T08:42:08.569Z,99414.85
2023-02-17T08:44:37.794Z,99410.99
2023-02-17T08:47:07.243Z,99408.92
2023-02-17T08:49:36.013Z,99399.95
2023-02-17T08:52:04.204Z,99395.44
2023-02-17T08:54:32.720Z,99396.95
2023-02-17T08:57:00.597Z,99394.29
2023-02-17T08:59:28.942Z,99402.96
2023-02-17T09:01:57.875Z,99402.30
2023-02-17T09:04:26.143Z,99402.54
2023-02-17T09:06:58.546Z,99402.54
2023-02-17T09:09:27.476Z,99407.91
2023-02-17T09:11:57.736Z,99409.44
2023-02-17T09:14:25.995Z,99403.19
2023-02-17T09:16:57.539Z,99401.36
2023-02-17T09:19:31.581Z,99396.10
2023-02-17T09:21:59.398Z,99388.31
2023-02-17T09:24:27.228Z,99390.91
2023-02-17T09:26:55.198Z,99386.20
2023-02-17T09:29:23.100Z,99384.83
2023-02-17T09:31:51.657Z,99387.63
2023-02-17T09:34:20.021Z,99387.39
2023-02-17T09:36:48.169Z,99387.48
2023-02-17T09:39:16.687Z,99387.73
2023-02-17T09:41:55.418Z,99377.69
2023-02-17T09:44:26.811Z,99382.27
2023-02-17T09:47:03.140Z,99375.73
2023-02-17T09:49:43.348Z,99376.96
2023-02-17T09:52:16.886Z,99373.16
2023-02-17T09:55:04.290Z,99371.45
2023-02-17T09:58:02.414Z,99364.86
2023-02-17T10:00:39.739Z,99367.14
2023-02-17T10:03:31.302Z,99361.80
2023-02-17T10:06:32.902Z,99362.45
2023-02-17T10:09:14.038Z,99361.38
2023-02-17T10:12:00.899Z,99358.60
2023-02-17T10:14:43.915Z,99357.98
2023-02-17T10:17:47.598Z,99352.61
2023-02-17T10:20:18.151Z,99343.20
2023-02-17T10:22:51.377Z,99336.23
2023-02-17T10:25:33.834Z,99329.42
2023-02-17T10:28:22.094Z,99320.69
2023-02-17T10:31:04.271Z,99316.46
2023-02-17T10:33:48.207Z,99315.63
2023-02-17T10:36:18.973Z,99316.21
2023-02-17T10:38:53.166Z,99315.48
2023-02-17T10:41:27.208Z,99311.11
2023-02-17T10:43:55.254Z,99303.55
2023-02-17T10:46:31.673Z,99308.54
2023-02-17T10:49:00.140Z,99305.85
2023-02-17T10:51:31.215Z,99303.16
2023-02-17T10:54:19.746Z,99295.61
2023-02-17T10:56:52.304Z,99291.80
2023-02-17T10:59:41.715Z,99291.52
2023-02-17T11:02:17.812Z,99288.93
2023-02-17T11:04:49.793Z,99280.85
2023-02-17T11:07:22.522Z,99275.51
2023-02-17T11:09:53.627Z,99269.38
2023-02-17T11:12:26.878Z,99259.34
2023-02-17T11:14:56.484Z,99248.59
2023-02-17T11:17:45.231Z,99244.64
2023-02-17T11:20:13.288Z,99229.57
2023-02-17T11:22:47.639Z,99231.17
2023-02-17T11:25:37.871Z,99224.00
2023-02-17T11:28:11.321Z,99223.42
2023-02-17T11:30:41.723Z,99216.88
2023-02-17T11:33:15.523Z,99212.05
2023-02-17T11:35:54.545Z,99205.39
2023-02-17T11:38:25.937Z,99210.45
2023-02-17T11:41:07.018Z,99204.05
2023-02-17T11:43:36.206Z,99203.88
2023-02-17T11:46:36.898Z,99199.81
2023-02-17T11:49:35.192Z,99206.73
2023-02-17T11:52:23.990Z,99191.38
2023-02-17T11:55:19.808Z,99195.59
2023-02-17T11:57:59.429Z,99193.28
2023-02-17T12:00:54.492Z,99190.58
2023-02-17T12:03:28.479Z,99187.48
2023-02-17T12:06:13.904Z,99185.36
2023-02-17T12:08:51.316Z,99185.32
2023-02-17T12:11:32.292Z,99182.27
2023-02-17T12:14:06.273Z,99180.71
2023-02-17T12:16:52.938Z,99171.63
2023-02-17T12:19:30.385Z,99174.09
2023-02-17T12:22:22.603Z,99175.06
2023-02-17T12:25:04.397Z,99168.35
2023-02-17T12:28:10.920Z,99171.18
2023-02-17T12:30:39.623Z,99173.88
2023-02-17T12:33:35.146Z,99167.09
2023-02-17T12:36:08.572Z,99160.70
2023-02-17T12:38:49.854Z,99151.71
2023-02-17T12:41:27.574Z,99150.17
2023-02-17T12:44:00.358Z,99150.23
2023-02-17T12:46:43.014Z,99150.04
2023-02-17T12:49:20.250Z,99148.39
2023-02-17T12:51:57.999Z,99143.38
2023-02-17T12:54:38.642Z,99141.41
2023-02-17T12:57:06.369Z,99137.02
2023-02-17T12:59:40.359Z,99135.66
2023-02-17T13:02:17.300Z,99126.75
2023-02-17T13:04:49.353Z,99118.42
2023-02-17T13:07:38.801Z,99111.79
2023-02-17T13:10:08.101Z,99108.21
2023-02-17T13:12:40.738Z,99111.34
2023-02-17T13:15:46.049Z,99103.83
2023-02-17T13:18:35.197Z,99100.74
2023-02-17T13:21:33.704Z,99099.44
2023-02-17T13:24:30.688Z,99095.61
2023-02-17T13:27:10.637Z,99093.62
2023-02-17T13:29:39.280Z,99095.87
2023-02-17T13:32:12.364Z,99089.61
2023-02-17T13:34:43.429Z,99092.59
2023-02-17T13:37:33.368Z,99094.34
2023-02-17T13:40:23.422Z,99097.67
2023-02-17T13:42:54.564Z,99094.64
2023-02-17T13:45:30.925Z,99086.36
2023-02-17T13:48:01.439Z,99082.77
2023-02-17T13:50:29.352Z,99083.75
2023-02-17T13:53:00.405Z,99079.78
2023-02-17T13:55:28.442Z,99078.77
2023-02-17T13:57:59.367Z,99070.70
2023-02-17T14:00:28.949Z,99072.01
2023-02-17T14:03:19.223Z,99066.05
2023-02-17T14:05:49.412Z,99064.61
2023-02-17T14:08:23.749Z,99066.52
2023-02-17T14:10:52.282Z,99061.13
2023-02-17T14:13:20.508Z,99057.77
2023-02-17T14:16:00.266Z,99055.27
2023-02-17T14:18:36.807Z,99053.86
2023-02-17T14:21:11.826Z,99043.73
2023-02-17T14:23:49.175Z,99038.44
2023-02-17T14:26:28.988Z,99036.98
2023-02-17T14:29:05.137Z,99035.19
2023-02-17T14:31:42.212Z,99030.48
2023-02-17T14:34:37.954Z,99025.21
2023-02-17T14:37:08.780Z,99018.29
2023-02-17T14:39:37.209Z,99013.89
2023-02-17T14:42:05.818Z,99008.96
2023-02-17T14:44:34.270Z,99006.35
2023-02-17T14:47:02.610Z,99008.75
2023-02-17T14:49:30.474Z,99006.13
2023-02-17T14:51:58.697Z,99008.55
2023-02-17T14:54:30.373Z,99012.26
2023-02-17T14:57:12.593Z,99007.73
2023-02-17T14:59:40.904Z,99002.84
2023-02-17T15:02:18.290Z,98996.02
2023-02-17T15:04:47.388Z,98992.19
2023-02-17T15:07:18.276Z,98989.59
2023-02-17T15:09:48.536Z,98991.09
2023-02-17T15:12:19.752Z,98988.54
2023-02-17T15:14:48.507Z,98985.77
2023-02-17T15:17:16.566Z,98981.80
2023-02-17T15:19:44.996Z,98976.50
2023-02-17T15:22:14.420Z,98972.09
2023-02-17T15:24:42.758Z,98969.17
2023-02-17T15:27:14.749Z,98971.13
2023-02-17T15:29:43.383Z,98966.21
2023-02-17T15:32:20.177Z,98963.69
2023-02-17T15:34:48.534Z,98959.69
2023-02-17T15:37:16.258Z,98956.55
2023-02-17T15:39:44.967Z,98954.82
2023-02-17T15:42:14.787Z,98948.70
2023-02-17T15:44:47.757Z,98943.67
2023-02-17T15:47:20.687Z,98941.46
2023-02-17T15:49:48.519Z,98939.48
2023-02-17T15:52:17.061Z,98933.42
2023-02-17T15:54:45.503Z,98933.55
2023-02-17T15:57:28.751Z,98936.61
2023-02-17T16:00:00.618Z,98925.81
2023-02-17T16:02:29.386Z,98918.15
2023-02-17T16:04:57.336Z,98914.56
2023-02-17T16:07:26.538Z,98912.67
2023-02-17T16:09:56.000Z,98913.71
2023-02-17T16:12:27.423Z,98911.48
2023-02-17T16:14:56.910Z,98911.02
2023-02-17T16:17:26.581Z,98911.36
2023-02-17T16:19:56.592Z,98912.63
2023-02-17T16:22:24.460Z,98913.48
2023-02-17T16:24:52.342Z,98908.83
2023-02-17T16:27:20.512Z,98900.80
2023-02-17T16:29:49.215Z,98897.36
2023-02-17T16:32:19.916Z,98892.55
2023-02-17T16:34:51.204Z,98885.98
2023-02-17T16:37:19.567Z,98878.54
2023-02-17T16:39:47.518Z,98873.85
